sensor_id;sensor_type;location;lat;lon;timestamp;pressure;altitude;pressure_sealevel;temperature;humidity
29215;BME280;16252;49.816;7.964;2023-09-19T00:01:12;99410.06;;;20.20;62.19
29215;BME280;16252;49.816;7.964;2023-09-19T00:03:37;99438.00;;;20.35;62.31
29215;BME280;16252;49.816;7.964;2023-09-19T00:06:04;99460.16;;;20.53;62.10
29215;BME280;16252;49.816;7.964;2023-09-19T00:08:35;99439.97;;;20.41;61.84
29215;BME280;16252;49.816;7.964;2023-09-19T00:11:01;99458.38;;;20.46;61.92
29215;BME280;16252;49.816;7.964;2023-09-19T00:13:28;99459.03;;;20.48;61.87
29215;BME280;16252;49.816;7.964;2023-09-19T00:15:53;99412.34;;;20.16;61.83
29215;BME280;16252;49.816;7.964;2023-09-19T00:18:21;99468.31;;;20.53;62.00
29215;BME280;16252;49.816;7.964;2023-09-19T00:20:47;99438.84;;;20.35;61.79
29215;BME280;16252;49.816;7.964;2023-09-19T00:23:16;99443.44;;;20.35;62.05
29215;BME280;16252;49.816;7.964;2023-09-19T00:25:41;99410.38;;;20.10;61.91
29215;BME280;16252;49.816;7.964;2023-09-19T00:28:07;99480.88;;;20.54;61.95
29215;BME280;16252;49.816;7.964;2023-09-19T00:30:33;99459.81;;;20.42;61.85
29215;BME280;16252;49.816;7.964;2023-09-19T00:32:59;99447.00;;;20.35;62.26
29215;BME280;16252;49.816;7.964;2023-09-19T00:35:24;99457.28;;;20.40;62.14
29215;BME280;16252;49.816;7.964;2023-09-19T00:37:50;99438.59;;;20.30;62.31
29215;BME280;16252;49.816;7.964;2023-09-19T00:40:15;99449.09;;;20.33;62.20
29215;BME280;16252;49.816;7.964;2023-09-19T00:42:42;99455.28;;;20.27;62.11
29215;BME280;16252;49.816;7.964;2023-09-19T00:45:08;99463.81;;;20.24;62.44
29215;BME280;16252;49.816;7.964;2023-09-19T00:47:36;99445.06;;;20.08;62.26
29215;BME280;16252;49.816;7.964;2023-09-19T00:50:04;99465.22;;;20.20;62.59
29215;BME280;16252;49.816;7.964;2023-09-19T00:52:34;99471.25;;;20.16;62.45
29215;BME280;16252;49.816;7.964;2023-09-19T00:55:01;99445.97;;;20.00;62.53
29215;BME280;16252;49.816;7.964;2023-09-19T00:57:27;99501.72;;;20.32;62.73
29215;BME280;16252;49.816;7.964;2023-09-19T00:59:54;99435.81;;;19.87;62.87
29215;BME280;16252;49.816;7.964;2023-09-19T01:02:21;99441.06;;;19.89;62.61
29215;BME280;16252;49.816;7.964;2023-09-19T01:04:46;99499.63;;;20.13;63.03
29215;BME280;16252;49.816;7.964;2023-09-19T01:07:11;99485.78;;;20.08;62.75
29215;BME280;16252;49.816;7.964;2023-09-19T01:09:37;99499.38;;;20.08;62.79
29215;BME280;16252;49.816;7.964;2023-09-19T01:12:05;99481.66;;;19.97;63.19
29215;BME280;16252;49.816;7.964;2023-09-19T01:14:54;99515.88;;;20.28;62.78
29215;BME280;16252;49.816;7.964;2023-09-19T01:17:32;99534.19;;;20.41;62.70
29215;BME280;16252;49.816;7.964;2023-09-19T01:23:00;99510.78;;;20.18;62.63
29215;BME280;16252;49.816;7.964;2023-09-19T01:28:54;99556.97;;;20.40;62.40
29215;BME280;16252;49.816;7.964;2023-09-19T01:31:28;99556.69;;;20.34;62.75
29215;BME280;16252;49.816;7.964;2023-09-19T01:34:01;99560.00;;;20.30;62.59
29215;BME280;16252;49.816;7.964;2023-09-19T01:36:33;99543.09;;;20.13;62.71
29215;BME280;16252;49.816;7.964;2023-09-19T01:39:13;99531.09;;;20.07;62.67
29215;BME280;16252;49.816;7.964;2023-09-19T01:44:13;99524.72;;;20.00;62.74
29215;BME280;16252;49.816;7.964;2023-09-19T01:46:41;99541.31;;;20.05;62.41
29215;BME280;16252;49.816;7.964;2023-09-19T01:52:02;99563.47;;;20.24;62.24
29215;BME280;16252;49.816;7.964;2023-09-19T01:54:33;99539.25;;;19.92;62.42
29215;BME280;16252;49.816;7.964;2023-09-19T01:57:09;99584.84;;;20.12;62.20
29215;BME280;16252;49.816;7.964;2023-09-19T01:59:45;99553.47;;;19.95;62.27
29215;BME280;16252;49.816;7.964;2023-09-19T02:02:13;99560.78;;;19.94;62.21
29215;BME280;16252;49.816;7.964;2023-09-19T02:04:40;99566.88;;;19.96;62.08
29215;BME280;16252;49.816;7.964;2023-09-19T02:07:05;99564.34;;;19.95;61.81
29215;BME280;16252;49.816;7.964;2023-09-19T02:09:31;99591.88;;;20.06;62.04
29215;BME280;16252;49.816;7.964;2023-09-19T02:11:56;99567.44;;;19.91;61.79
29215;BME280;16252;49.816;7.964;2023-09-19T02:14:21;99564.44;;;19.86;61.83
29215;BME280;16252;49.816;7.964;2023-09-19T02:16:47;99570.06;;;19.85;61.94
29215;BME280;16252;49.816;7.964;2023-09-19T02:19:13;99569.22;;;19.84;61.91
29215;BME280;16252;49.816;7.964;2023-09-19T02:21:38;99572.16;;;19.83;61.90
29215;BME280;16252;49.816;7.964;2023-09-19T02:24:06;99566.88;;;19.81;62.16
29215;BME280;16252;49.816;7.964;2023-09-19T02:26:33;99583.84;;;19.83;61.79
29215;BME280;16252;49.816;7.964;2023-09-19T02:29:02;99539.53;;;19.53;61.82
29215;BME280;16252;49.816;7.964;2023-09-19T02:31:30;99582.50;;;19.79;61.78
29215;BME280;16252;49.816;7.964;2023-09-19T02:33:55;99544.56;;;19.56;61.49
29215;BME280;16252;49.816;7.964;2023-09-19T02:36:21;99568.06;;;19.64;61.67
29215;BME280;16252;49.816;7.964;2023-09-19T02:38:48;99549.25;;;19.47;61.53
29215;BME280;16252;49.816;7.964;2023-09-19T02:41:14;99530.91;;;19.35;61.24
29215;BME280;16252;49.816;7.964;2023-09-19T02:43:39;99589.59;;;19.65;61.23
29215;BME280;16252;49.816;7.964;2023-09-19T02:46:04;99571.91;;;19.55;61.49
29215;BME280;16252;49.816;7.964;2023-09-19T02:48:29;99593.03;;;19.59;61.31
29215;BME280;16252;49.816;7.964;2023-09-19T02:50:57;99554.28;;;19.36;61.23
29215;BME280;16252;49.816;7.964;2023-09-19T02:53:22;99578.06;;;19.48;61.25
29215;BME280;16252;49.816;7.964;2023-09-19T02:55:49;99586.19;;;19.48;61.24
29215;BME280;16252;49.816;7.964;2023-09-19T02:58:15;99567.19;;;19.34;61.07
29215;BME280;16252;49.816;7.964;2023-09-19T03:00:40;99590.31;;;19.44;61.04
29215;BME280;16252;49.816;7.964;2023-09-19T03:03:07;99608.88;;;19.56;60.98
29215;BME280;16252;49.816;7.964;2023-09-19T03:05:33;99605.38;;;19.47;61.31
29215;BME280;16252;49.816;7.964;2023-09-19T03:07:59;99583.66;;;19.32;60.98
29215;BME280;16252;49.816;7.964;2023-09-19T03:10:26;99573.91;;;19.23;61.15
29215;BME280;16252;49.816;7.964;2023-09-19T03:12:53;99584.22;;;19.27;60.96
29215;BME280;16252;49.816;7.964;2023-09-19T03:15:18;99602.16;;;19.28;61.01
29215;BME280;16252;49.816;7.964;2023-09-19T03:17:45;99607.94;;;19.25;60.96
29215;BME280;16252;49.816;7.964;2023-09-19T03:20:11;99596.50;;;19.15;61.03
29215;BME280;16252;49.816;7.964;2023-09-19T03:22:38;99610.19;;;19.22;61.02
29215;BME280;16252;49.816;7.964;2023-09-19T03:25:05;99609.25;;;19.15;61.12
29215;BME280;16252;49.816;7.964;2023-09-19T03:27:34;99606.53;;;19.15;60.83
29215;BME280;16252;49.816;7.964;2023-09-19T03:29:59;99642.53;;;19.23;60.92
29215;BME280;16252;49.816;7.964;2023-09-19T03:32:24;99627.19;;;19.16;61.03
29215;BME280;16252;49.816;7.964;2023-09-19T03:34:49;99620.91;;;19.15;60.86
29215;BME280;16252;49.816;7.964;2023-09-19T03:37:15;99617.25;;;19.08;61.06
29215;BME280;16252;49.816;7.964;2023-09-19T03:39:40;99608.34;;;18.99;61.18
29215;BME280;16252;49.816;7.964;2023-09-19T03:42:05;99625.88;;;19.12;61.02
29215;BME280;16252;49.816;7.964;2023-09-19T03:44:32;99622.13;;;19.13;61.31
29215;BME280;16252;49.816;7.964;2023-09-19T03:46:57;99614.91;;;19.05;61.10
29215;BME280;16252;49.816;7.964;2023-09-19T03:49:23;99634.47;;;19.15;61.51
29215;BME280;16252;49.816;7.964;2023-09-19T03:51:48;99618.81;;;19.02;61.40
29215;BME280;16252;49.816;7.964;2023-09-19T03:54:13;99629.41;;;19.12;61.36
29215;BME280;16252;49.816;7.964;2023-09-19T03:56:38;99560.59;;;18.67;61.18
29215;BME280;16252;49.816;7.964;2023-09-19T03:59:04;99614.06;;;19.04;61.28
29215;BME280;16252;49.816;7.964;2023-09-19T04:01:29;99614.59;;;19.00;61.31
29215;BME280;16252;49.816;7.964;2023-09-19T04:03:57;99610.09;;;18.92;61.19
29215;BME280;16252;49.816;7.964;2023-09-19T04:06:22;99616.47;;;18.99;61.00
29215;BME280;16252;49.816;7.964;2023-09-19T04:08:48;99601.81;;;18.86;60.95
29215;BME280;16252;49.816;7.964;2023-09-19T04:11:14;99588.34;;;18.77;60.85
29215;BME280;16252;49.816;7.964;2023-09-19T04:13:39;99624.41;;;19.01;60.88
29215;BME280;16252;49.816;7.964;2023-09-19T04:16:04;99609.28;;;18.83;60.63
29215;BME280;16252;49.816;7.964;2023-09-19T04:18:32;99670.19;;;19.19;60.83
29215;BME280;16252;49.816;7.964;2023-09-19T04:20:58;99642.84;;;19.05;60.93
29215;BME280;16252;49.816;7.964;2023-09-19T04:23:24;99625.97;;;18.95;60.67
29215;BME280;16252;49.816;7.964;2023-09-19T04:25:50;99642.38;;;19.02;60.69
29215;BME280;16252;49.816;7.964;2023-09-19T04:28:15;99675.28;;;19.22;60.85
29215;BME280;16252;49.816;7.964;2023-09-19T04:30:41;99654.28;;;19.16;60.68
29215;BME280;16252;49.816;7.964;2023-09-19T04:33:06;99662.06;;;19.19;60.80
29215;BME280;16252;49.816;7.964;2023-09-19T04:35:32;99646.06;;;19.09;60.95
29215;BME280;16252;49.816;7.964;2023-09-19T04:37:58;99676.88;;;19.31;60.75
29215;BME280;16252;49.816;7.964;2023-09-19T04:40:23;99662.38;;;19.24;60.62
29215;BME280;16252;49.816;7.964;2023-09-19T04:42:56;99650.00;;;19.21;60.55
29215;BME280;16252;49.816;7.964;2023-09-19T04:45:22;99661.72;;;19.22;60.78
29215;BME280;16252;49.816;7.964;2023-09-19T04:47:48;99673.34;;;19.31;60.71
29215;BME280;16252;49.816;7.964;2023-09-19T04:50:13;99657.59;;;19.26;60.53
29215;BME280;16252;49.816;7.964;2023-09-19T04:52:40;99670.16;;;19.27;60.58
29215;BME280;16252;49.816;7.964;2023-09-19T04:55:08;99679.81;;;19.30;60.53
29215;BME280;16252;49.816;7.964;2023-09-19T04:57:34;99639.66;;;19.02;60.58
29215;BME280;16252;49.816;7.964;2023-09-19T04:59:59;99653.03;;;19.03;60.68
29215;BME280;16252;49.816;7.964;2023-09-19T05:02:24;99668.22;;;19.13;60.56
29215;BME280;16252;49.816;7.964;2023-09-19T05:04:50;99661.84;;;19.05;60.61
29215;BME280;16252;49.816;7.964;2023-09-19T05:07:15;99640.78;;;18.84;60.65
29215;BME280;16252;49.816;7.964;2023-09-19T05:09:42;99698.41;;;19.10;60.86
29215;BME280;16252;49.816;7.964;2023-09-19T05:12:07;99665.31;;;18.91;60.70
29215;BME280;16252;49.816;7.964;2023-09-19T05:14:35;99651.69;;;18.76;60.75
29215;BME280;16252;49.816;7.964;2023-09-19T05:17:01;99663.19;;;18.78;60.76
29215;BME280;16252;49.816;7.964;2023-09-19T05:19:28;99662.38;;;18.70;60.83
29215;BME280;16252;49.816;7.964;2023-09-19T05:21:53;99670.81;;;18.75;60.72
29215;BME280;16252;49.816;7.964;2023-09-19T05:24:20;99682.81;;;18.80;60.76
29215;BME280;16252;49.816;7.964;2023-09-19T05:26:48;99690.94;;;18.80;60.88
29215;BME280;16252;49.816;7.964;2023-09-19T05:29:13;99693.84;;;18.79;60.92
29215;BME280;16252;49.816;7.964;2023-09-19T05:31:39;99672.22;;;18.62;60.95
29215;BME280;16252;49.816;7.964;2023-09-19T05:34:06;99739.00;;;18.95;60.95
29215;BME280;16252;49.816;7.964;2023-09-19T05:36:31;99709.09;;;18.80;60.88
29215;BME280;16252;49.816;7.964;2023-09-19T05:38:56;99684.44;;;18.58;60.97
29215;BME280;16252;49.816;7.964;2023-09-19T05:41:22;99719.94;;;18.80;60.87
29215;BME280;16252;49.816;7.964;2023-09-19T05:43:49;99727.91;;;18.81;60.89
29215;BME280;16252;49.816;7.964;2023-09-19T05:46:15;99740.56;;;18.89;61.06
29215;BME280;16252;49.816;7.964;2023-09-19T05:48:40;99722.63;;;18.80;60.88
29215;BME280;16252;49.816;7.964;2023-09-19T05:51:09;99735.81;;;18.83;61.13
29215;BME280;16252;49.816;7.964;2023-09-19T05:53:34;99721.97;;;18.78;60.78
29215;BME280;16252;49.816;7.964;2023-09-19T05:56:00;99719.44;;;18.76;60.99
29215;BME280;16252;49.816;7.964;2023-09-19T05:58:26;99753.56;;;18.94;60.84
29215;BME280;16252;49.816;7.964;2023-09-19T06:00:51;99741.88;;;18.93;60.67
29215;BME280;16252;49.816;7.964;2023-09-19T06:03:17;99754.91;;;18.98;60.82
29215;BME280;16252;49.816;7.964;2023-09-19T06:05:44;99723.47;;;18.80;60.70
29215;BME280;16252;49.816;7.964;2023-09-19T06:08:11;99738.16;;;18.94;60.75
29215;BME280;16252;49.816;7.964;2023-09-19T06:10:37;99699.94;;;18.73;60.80
29215;BME280;16252;49.816;7.964;2023-09-19T06:13:03;99730.34;;;18.91;60.85
29215;BME280;16252;49.816;7.964;2023-09-19T06:15:35;99766.69;;;19.13;60.60
29215;BME280;16252;49.816;7.964;2023-09-19T06:18:01;99739.13;;;19.01;60.57
29215;BME280;16252;49.816;7.964;2023-09-19T06:20:29;99696.72;;;18.77;60.83
29215;BME280;16252;49.816;7.964;2023-09-19T06:22:55;99752.97;;;19.15;60.90
29215;BME280;16252;49.816;7.964;2023-09-19T06:25:21;99762.91;;;19.22;60.62
29215;BME280;16252;49.816;7.964;2023-09-19T06:27:47;99769.13;;;19.31;60.75
29215;BME280;16252;49.816;7.964;2023-09-19T06:30:13;99763.06;;;19.21;60.53
29215;BME280;16252;49.816;7.964;2023-09-19T06:32:41;99754.94;;;19.21;60.63
29215;BME280;16252;49.816;7.964;2023-09-19T06:35:09;99725.91;;;19.07;60.78
29215;BME280;16252;49.816;7.964;2023-09-19T06:37:36;99770.81;;;19.32;60.50
29215;BME280;16252;49.816;7.964;2023-09-19T06:40:05;99774.19;;;19.34;60.31
29215;BME280;16252;49.816;7.964;2023-09-19T06:42:30;99784.13;;;19.42;60.55
29215;BME280;16252;49.816;7.964;2023-09-19T06:44:56;99761.81;;;19.32;60.51
29215;BME280;16252;49.816;7.964;2023-09-19T06:47:21;99763.81;;;19.38;60.47
29215;BME280;16252;49.816;7.964;2023-09-19T06:49:47;99778.38;;;19.45;60.25
29215;BME280;16252;49.816;7.964;2023-09-19T06:52:13;99776.97;;;19.49;59.67
29215;BME280;16252;49.816;7.964;2023-09-19T06:54:38;99774.44;;;19.47;59.57
29215;BME280;16252;49.816;7.964;2023-09-19T06:57:05;99778.53;;;19.43;59.10
29215;BME280;16252;49.816;7.964;2023-09-19T06:59:31;99766.00;;;19.42;59.17
29215;BME280;16252;49.816;7.964;2023-09-19T07:01:57;99758.56;;;19.36;58.90
29215;BME280;16252;49.816;7.964;2023-09-19T07:04:24;99777.69;;;19.43;58.59
29215;BME280;16252;49.816;7.964;2023-09-19T07:06:49;99772.28;;;19.43;58.37
29215;BME280;16252;49.816;7.964;2023-09-19T07:09:18;99782.59;;;19.47;58.21
29215;BME280;16252;49.816;7.964;2023-09-19T07:11:47;99779.50;;;19.51;58.10
29215;BME280;16252;49.816;7.964;2023-09-19T07:14:15;99795.94;;;19.57;58.37
29215;BME280;16252;49.816;7.964;2023-09-19T07:16:41;99801.34;;;19.57;58.12
29215;BME280;16252;49.816;7.964;2023-09-19T07:19:09;99813.97;;;19.73;58.08
29215;BME280;16252;49.816;7.964;2023-09-19T07:21:34;99814.28;;;19.78;57.73
29215;BME280;16252;49.816;7.964;2023-09-19T07:24:04;99801.72;;;19.77;57.97
29215;BME280;16252;49.816;7.964;2023-09-19T07:26:29;99826.94;;;19.86;57.88
29215;BME280;16252;49.816;7.964;2023-09-19T07:28:56;99795.66;;;19.75;57.56
29215;BME280;16252;49.816;7.964;2023-09-19T07:31:22;99784.97;;;19.74;57.37
29215;BME280;16252;49.816;7.964;2023-09-19T07:33:48;99850.63;;;20.15;57.46
29215;BME280;16252;49.816;7.964;2023-09-19T07:36:13;99856.34;;;20.20;57.10
29215;BME280;16252;49.816;7.964;2023-09-19T07:38:40;99837.03;;;20.15;57.29
29215;BME280;16252;49.816;7.964;2023-09-19T07:41:05;99846.44;;;20.27;56.94
29215;BME280;16252;49.816;7.964;2023-09-19T07:43:31;99814.19;;;20.09;56.80
29215;BME280;16252;49.816;7.964;2023-09-19T07:45:56;99837.84;;;20.24;56.59
29215;BME280;16252;49.816;7.964;2023-09-19T07:48:22;99838.84;;;20.23;56.99
29215;BME280;16252;49.816;7.964;2023-09-19T07:50:49;99852.28;;;20.39;56.53
29215;BME280;16252;49.816;7.964;2023-09-19T07:53:14;99858.69;;;20.46;56.42
29215;BME280;16252;49.816;7.964;2023-09-19T07:55:40;99891.66;;;20.66;56.01
29215;BME280;16252;49.816;7.964;2023-09-19T07:58:06;99886.97;;;20.75;55.75
29215;BME280;16252;49.816;7.964;2023-09-19T08:00:32;99872.63;;;20.66;55.87
29215;BME280;16252;49.816;7.964;2023-09-19T08:03:00;99873.47;;;20.67;55.83
29215;BME280;16252;49.816;7.964;2023-09-19T08:05:26;99827.38;;;20.50;55.59
29215;BME280;16252;49.816;7.964;2023-09-19T08:07:52;99909.97;;;21.02;55.65
29215;BME280;16252;49.816;7.964;2023-09-19T08:10:18;99897.38;;;21.01;54.60
29215;BME280;16252;49.816;7.964;2023-09-19T08:12:46;99865.94;;;20.84;54.44
29215;BME280;16252;49.816;7.964;2023-09-19T08:15:16;99885.09;;;21.05;53.46
29215;BME280;16252;49.816;7.964;2023-09-19T08:17:42;99876.66;;;21.00;53.63
29215;BME280;16252;49.816;7.964;2023-09-19T08:20:09;99911.09;;;21.23;53.37
29215;BME280;16252;49.816;7.964;2023-09-19T08:22:42;99877.88;;;20.97;53.13
29215;BME280;16252;49.816;7.964;2023-09-19T08:25:09;99893.72;;;21.09;53.34
29215;BME280;16252;49.816;7.964;2023-09-19T08:27:34;99889.16;;;21.09;52.77
29215;BME280;16252;49.816;7.964;2023-09-19T08:30:01;99901.59;;;21.18;53.06
29215;BME280;16252;49.816;7.964;2023-09-19T08:32:28;99882.28;;;21.13;52.33
29215;BME280;16252;49.816;7.964;2023-09-19T08:34:54;99881.81;;;21.10;52.11
29215;BME280;16252;49.816;7.964;2023-09-19T08:37:19;99879.16;;;21.16;52.05
29215;BME280;16252;49.816;7.964;2023-09-19T08:39:44;99910.50;;;21.42;51.91
29215;BME280;16252;49.816;7.964;2023-09-19T08:42:10;99889.78;;;21.26;51.76
29215;BME280;16252;49.816;7.964;2023-09-19T08:44:37;99902.03;;;21.37;51.67
29215;BME280;16252;49.816;7.964;2023-09-19T08:50:07;99922.31;;;21.64;51.71
29215;BME280;16252;49.816;7.964;2023-09-19T08:52:43;99918.31;;;21.60;51.61
29215;BME280;16252;49.816;7.964;2023-09-19T08:55:12;99889.66;;;21.49;51.69
29215;BME280;16252;49.816;7.964;2023-09-19T08:57:38;99890.53;;;21.50;51.54
29215;BME280;16252;49.816;7.964;2023-09-19T09:00:08;99918.16;;;21.83;51.36
29215;BME280;16252;49.816;7.964;2023-09-19T09:02:37;99945.63;;;22.03;50.77
29215;BME280;16252;49.816;7.964;2023-09-19T09:05:05;99917.44;;;21.96;50.94
29215;BME280;16252;49.816;7.964;2023-09-19T09:07:32;99860.03;;;21.76;50.20
29215;BME280;16252;49.816;7.964;2023-09-19T09:10:00;99900.59;;;22.07;50.39
29215;BME280;16252;49.816;7.964;2023-09-19T09:12:25;99924.94;;;22.30;50.13
29215;BME280;16252;49.816;7.964;2023-09-19T09:14:51;99925.25;;;22.42;50.18
29215;BME280;16252;49.816;7.964;2023-09-19T09:17:17;99928.81;;;22.64;50.29
29215;BME280;16252;49.816;7.964;2023-09-19T09:19:48;99912.31;;;22.72;49.28
29215;BME280;16252;49.816;7.964;2023-09-19T09:22:13;99918.75;;;22.92;48.89
29215;BME280;16252;49.816;7.964;2023-09-19T09:24:54;99928.22;;;23.25;49.72
29215;BME280;16252;49.816;7.964;2023-09-19T09:27:23;99870.19;;;23.16;49.33
29215;BME280;16252;49.816;7.964;2023-09-19T09:29:50;99893.50;;;23.60;49.22
29215;BME280;16252;49.816;7.964;2023-09-19T09:32:26;99917.88;;;24.36;48.67
29215;BME280;16252;49.816;7.964;2023-09-19T09:34:55;99922.94;;;24.86;47.97
29215;BME280;16252;49.816;7.964;2023-09-19T09:37:21;99919.31;;;25.32;47.19
29215;BME280;16252;49.816;7.964;2023-09-19T09:42:35;99928.88;;;26.38;47.25
29215;BME280;16252;49.816;7.964;2023-09-19T09:45:27;99916.09;;;26.82;46.59
29215;BME280;16252;49.816;7.964;2023-09-19T09:47:59;99922.06;;;27.22;43.11
29215;BME280;16252;49.816;7.964;2023-09-19T09:53:24;99928.00;;;28.05;42.62
29215;BME280;16252;49.816;7.964;2023-09-19T09:56:04;99896.06;;;28.34;43.11
29215;BME280;16252;49.816;7.964;2023-09-19T09:58:35;99900.41;;;28.89;42.13
29215;BME280;16252;49.816;7.964;2023-09-19T10:01:02;99864.09;;;29.79;34.20
29215;BME280;16252;49.816;7.964;2023-09-19T10:03:38;99893.66;;;30.13;36.41
29215;BME280;16252;49.816;7.964;2023-09-19T10:06:15;99892.72;;;30.53;38.17
29215;BME280;16252;49.816;7.964;2023-09-19T10:09:07;99909.63;;;30.90;37.85
29215;BME280;16252;49.816;7.964;2023-09-19T10:11:41;99911.09;;;31.15;36.45
29215;BME280;16252;49.816;7.964;2023-09-19T10:14:09;99883.84;;;31.23;35.10
29215;BME280;16252;49.816;7.964;2023-09-19T10:16:39;99916.97;;;31.62;35.88
29215;BME280;16252;49.816;7.964;2023-09-19T10:19:07;99923.22;;;31.97;35.04
29215;BME280;16252;49.816;7.964;2023-09-19T10:21:36;99930.56;;;32.13;40.73
29215;BME280;16252;49.816;7.964;2023-09-19T10:24:01;99929.94;;;32.33;41.86
29215;BME280;16252;49.816;7.964;2023-09-19T10:26:32;99922.13;;;32.52;42.90
29215;BME280;16252;49.816;7.964;2023-09-19T10:29:00;99899.78;;;32.64;35.84
29215;BME280;16252;49.816;7.964;2023-09-19T10:31:29;99923.53;;;32.92;42.53
29215;BME280;16252;49.816;7.964;2023-09-19T10:33:55;99884.50;;;32.61;35.13
29215;BME280;16252;49.816;7.964;2023-09-19T10:36:24;99917.75;;;32.61;33.73
29215;BME280;16252;49.816;7.964;2023-09-19T10:38:51;99927.38;;;32.53;38.90
29215;BME280;16252;49.816;7.964;2023-09-19T10:41:21;99898.13;;;32.03;34.24
29215;BME280;16252;49.816;7.964;2023-09-19T10:43:48;99889.50;;;31.78;33.99
29215;BME280;16252;49.816;7.964;2023-09-19T10:46:14;99913.38;;;31.84;33.28
29215;BME280;16252;49.816;7.964;2023-09-19T10:48:40;99858.78;;;31.52;33.83
29215;BME280;16252;49.816;7.964;2023-09-19T10:51:20;99887.06;;;31.81;35.40
29215;BME280;16252;49.816;7.964;2023-09-19T10:54:05;99906.25;;;32.15;34.68
29215;BME280;16252;49.816;7.964;2023-09-19T10:56:35;99873.22;;;32.03;32.78
29215;BME280;16252;49.816;7.964;2023-09-19T10:59:09;99894.66;;;32.18;33.10
29215;BME280;16252;49.816;7.964;2023-09-19T11:01:55;99905.50;;;32.25;34.47
29215;BME280;16252;49.816;7.964;2023-09-19T11:04:33;99906.63;;;32.24;33.05
29215;BME280;16252;49.816;7.964;2023-09-19T11:07:01;99895.44;;;32.13;31.47
29215;BME280;16252;49.816;7.964;2023-09-19T11:15:02;99891.66;;;31.48;36.04
29215;BME280;16252;49.816;7.964;2023-09-19T11:17:36;99896.19;;;31.16;36.76
29215;BME280;16252;49.816;7.964;2023-09-19T11:30:46;99871.25;;;28.64;32.76
29215;BME280;16252;49.816;7.964;2023-09-19T11:36:02;99840.69;;;27.88;33.94
29215;BME280;16252;49.816;7.964;2023-09-19T11:46:33;99849.63;;;26.80;34.26
29215;BME280;16252;49.816;7.964;2023-09-19T11:49:05;99838.06;;;26.53;34.92
29215;BME280;16252;49.816;7.964;2023-09-19T11:51:40;99861.56;;;26.42;34.60
29215;BME280;16252;49.816;7.964;2023-09-19T11:54:10;99866.53;;;26.27;34.81
29215;BME280;16252;49.816;7.964;2023-09-19T11:56:43;99844.84;;;25.93;35.11
29215;BME280;16252;49.816;7.964;2023-09-19T11:59:10;99839.03;;;25.77;34.96
29215;BME280;16252;49.816;7.964;2023-09-19T12:01:38;99861.13;;;25.88;35.48
29215;BME280;16252;49.816;7.964;2023-09-19T12:04:08;99842.66;;;25.70;35.48
29215;BME280;16252;49.816;7.964;2023-09-19T12:06:35;99865.44;;;26.03;37.28
29215;BME280;16252;49.816;7.964;2023-09-19T12:09:04;99863.47;;;25.78;36.00
29215;BME280;16252;49.816;7.964;2023-09-19T12:11:32;99825.06;;;25.46;35.55
29215;BME280;16252;49.816;7.964;2023-09-19T12:13:58;99854.91;;;25.61;35.63
29215;BME280;16252;49.816;7.964;2023-09-19T12:16:26;99863.56;;;25.58;35.69
29215;BME280;16252;49.816;7.964;2023-09-19T12:18:56;99810.00;;;25.30;35.51
29215;BME280;16252;49.816;7.964;2023-09-19T12:21:31;99848.69;;;25.47;35.94
29215;BME280;16252;49.816;7.964;2023-09-19T12:24:11;99855.00;;;25.48;35.92
29215;BME280;16252;49.816;7.964;2023-09-19T12:26:46;99835.88;;;25.35;35.90
29215;BME280;16252;49.816;7.964;2023-09-19T12:29:19;99810.88;;;25.11;35.32
29215;BME280;16252;49.816;7.964;2023-09-19T12:31:54;99844.31;;;25.33;36.00
29215;BME280;16252;49.816;7.964;2023-09-19T12:34:25;99821.84;;;25.18;35.67
29215;BME280;16252;49.816;7.964;2023-09-19T12:37:12;99806.03;;;25.20;36.15
29215;BME280;16252;49.816;7.964;2023-09-19T12:39:45;99805.63;;;25.09;35.79
29215;BME280;16252;49.816;7.964;2023-09-19T12:42:15;99818.66;;;25.14;35.44
29215;BME280;16252;49.816;7.964;2023-09-19T12:44:43;99807.31;;;25.11;35.39
29215;BME280;16252;49.816;7.964;2023-09-19T12:47:16;99835.72;;;25.23;35.48
29215;BME280;16252;49.816;7.964;2023-09-19T12:50:13;99834.00;;;25.28;35.87
29215;BME280;16252;49.816;7.964;2023-09-19T12:52:41;99824.13;;;25.14;35.36
29215;BME280;16252;49.816;7.964;2023-09-19T12:55:08;99807.78;;;24.94;35.27
29215;BME280;16252;49.816;7.964;2023-09-19T12:57:44;99786.16;;;24.73;35.41
29215;BME280;16252;49.816;7.964;2023-09-19T13:00:09;99824.41;;;24.93;35.70
29215;BME280;16252;49.816;7.964;2023-09-19T13:02:37;99807.81;;;24.87;35.45
29215;BME280;16252;49.816;7.964;2023-09-19T13:05:03;99788.06;;;24.79;35.43
29215;BME280;16252;49.816;7.964;2023-09-19T13:07:44;99823.72;;;25.11;36.05
29215;BME280;16252;49.816;7.964;2023-09-19T13:10:14;99801.50;;;24.87;35.45
29215;BME280;16252;49.816;7.964;2023-09-19T13:12:43;99763.91;;;24.62;35.62
29215;BME280;16252;49.816;7.964;2023-09-19T13:15:13;99833.84;;;25.03;35.22
29215;BME280;16252;49.816;7.964;2023-09-19T13:17:48;99801.06;;;24.83;35.79
29215;BME280;16252;49.816;7.964;2023-09-19T13:20:24;99741.00;;;24.50;36.03
29215;BME280;16252;49.816;7.964;2023-09-19T13:22:53;99831.56;;;25.00;35.63
29215;BME280;16252;49.816;7.964;2023-09-19T13:25:23;99769.16;;;24.64;35.73
29215;BME280;16252;49.816;7.964;2023-09-19T13:27:53;99819.34;;;25.03;35.88
29215;BME280;16252;49.816;7.964;2023-09-19T13:30:21;99825.19;;;25.06;35.94
29215;BME280;16252;49.816;7.964;2023-09-19T13:32:47;99789.91;;;24.92;36.07
29215;BME280;16252;49.816;7.964;2023-09-19T13:35:16;99774.13;;;24.87;35.96
29215;BME280;16252;49.816;7.964;2023-09-19T13:37:42;99808.19;;;25.04;35.69
29215;BME280;16252;49.816;7.964;2023-09-19T13:40:12;99807.31;;;25.17;35.62
29215;BME280;16252;49.816;7.964;2023-09-19T13:42:38;99801.38;;;25.14;35.69
29215;BME280;16252;49.816;7.964;2023-09-19T13:45:05;99716.97;;;24.65;35.92
29215;BME280;16252;49.816;7.964;2023-09-19T13:47:31;99766.56;;;24.89;36.20
29215;BME280;16252;49.816;7.964;2023-09-19T13:49:58;99788.34;;;25.09;36.21
29215;BME280;16252;49.816;7.964;2023-09-19T13:52:23;99778.94;;;24.98;36.01